sensor_id;sensor_type;location;lat;lon;timestamp;pressure;altitude;pressure_sealevel;temperature;humidity
46782;BME280;32541;46.298;11.506;2023-05-21T00:00:40;89500.59;;;9.45;100.00
46782;BME280;32541;46.298;11.506;2023-05-21T00:03:06;89506.97;;;9.48;100.00
46782;BME280;32541;46.298;11.506;2023-05-21T00:05:41;89495.72;;;9.54;100.00
46782;BME280;32541;46.298;11.506;2023-05-21T00:08:07;89495.00;;;9.63;100.00
46782;BME280;32541;46.298;11.506;2023-05-21T00:10:32;89495.69;;;9.44;100.00
46782;BME280;32541;46.298;11.506;2023-05-21T00:12:58;89490.78;;;9.42;100.00
46782;BME280;32541;46.298;11.506;2023-05-21T00:15:23;89485.25;;;9.33;100.00
46782;BME280;32541;46.298;11.506;2023-05-21T00:17:48;89480.03;;;9.27;100.00
46782;BME280;32541;46.298;11.506;2023-05-21T00:20:14;89480.00;;;9.18;100.00
46782;BME280;32541;46.298;11.506;2023-05-21T00:22:40;89481.78;;;9.23;100.00
46782;BME280;32541;46.298;11.506;2023-05-21T00:25:10;89483.78;;;9.22;100.00
46782;BME280;32541;46.298;11.506;2023-05-21T00:27:35;89488.97;;;9.18;100.00
46782;BME280;32541;46.298;11.506;2023-05-21T00:30:01;89485.63;;;9.10;100.00
46782;BME280;32541;46.298;11.506;2023-05-21T00:32:27;89479.13;;;9.15;100.00
46782;BME280;32541;46.298;11.506;2023-05-21T00:34:53;89483.03;;;9.12;100.00
46782;BME280;32541;46.298;11.506;2023-05-21T00:37:18;89486.63;;;9.15;100.00
46782;BME280;32541;46.298;11.506;2023-05-21T00:39:44;89482.91;;;9.20;100.00
46782;BME280;32541;46.298;11.506;2023-05-21T00:42:09;89479.03;;;9.23;100.00
46782;BME280;32541;46.298;11.506;2023-05-21T00:44:34;89475.97;;;9.19;100.00
46782;BME280;32541;46.298;11.506;2023-05-21T00:47:01;89482.91;;;9.20;100.00
46782;BME280;32541;46.298;11.506;2023-05-21T00:49:27;89476.72;;;9.19;100.00
46782;BME280;32541;46.298;11.506;2023-05-21T00:51:52;89460.56;;;9.23;100.00
46782;BME280;32541;46.298;11.506;2023-05-21T00:54:19;89463.84;;;9.22;100.00
46782;BME280;32541;46.298;11.506;2023-05-21T00:56:45;89470.63;;;9.21;100.00
46782;BME280;32541;46.298;11.506;2023-05-21T00:59:11;89468.03;;;9.13;100.00
46782;BME280;32541;46.298;11.506;2023-05-21T01:01:36;89466.97;;;9.09;100.00
46782;BME280;32541;46.298;11.506;2023-05-21T01:04:02;89467.53;;;8.98;100.00
46782;BME280;32541;46.298;11.506;2023-05-21T01:06:28;89471.41;;;8.94;100.00
46782;BME280;32541;46.298;11.506;2023-05-21T01:08:54;89470.84;;;8.96;100.00
46782;BME280;32541;46.298;11.506;2023-05-21T01:11:28;89471.44;;;9.04;100.00
46782;BME280;32541;46.298;11.506;2023-05-21T01:13:56;89475.59;;;8.96;100.00
46782;BME280;32541;46.298;11.506;2023-05-21T01:16:21;89468.66;;;8.94;100.00
46782;BME280;32541;46.298;11.506;2023-05-21T01:18:47;89464.44;;;8.84;100.00
46782;BME280;32541;46.298;11.506;2023-05-21T01:21:12;89468.47;;;8.83;100.00
46782;BME280;32541;46.298;11.506;2023-05-21T01:23:41;89461.53;;;8.82;100.00
46782;BME280;32541;46.298;11.506;2023-05-21T01:26:06;89466.78;;;8.87;100.00
46782;BME280;32541;46.298;11.506;2023-05-21T01:28:32;89461.25;;;8.78;100.00
46782;BME280;32541;46.298;11.506;2023-05-21T01:31:04;89469.34;;;8.76;100.00
46782;BME280;32541;46.298;11.506;2023-05-21T01:33:40;89465.28;;;8.77;100.00
46782;BME280;32541;46.298;11.506;2023-05-21T01:36:20;89467.03;;;8.82;100.00
46782;BME280;32541;46.298;11.506;2023-05-21T01:41:17;89460.94;;;8.74;100.00
46782;BME280;32541;46.298;11.506;2023-05-21T01:43:44;89462.91;;;8.64;100.00
46782;BME280;32541;46.298;11.506;2023-05-21T01:46:13;89453.34;;;8.55;100.00
46782;BME280;32541;46.298;11.506;2023-05-21T01:48:42;89453.34;;;8.55;100.00
46782;BME280;32541;46.298;11.506;2023-05-21T01:51:08;89456.06;;;8.55;100.00
46782;BME280;32541;46.298;11.506;2023-05-21T01:53:34;89456.41;;;8.59;100.00
46782;BME280;32541;46.298;11.506;2023-05-21T01:56:00;89459.00;;;8.57;100.00
46782;BME280;32541;46.298;11.506;2023-05-21T01:58:26;89454.94;;;8.58;100.00
46782;BME280;32541;46.298;11.506;2023-05-21T02:00:52;89448.03;;;8.57;100.00
46782;BME280;32541;46.298;11.506;2023-05-21T02:03:18;89442.38;;;8.55;100.00
46782;BME280;32541;46.298;11.506;2023-05-21T02:05:44;89446.00;;;8.58;100.00
46782;BME280;32541;46.298;11.506;2023-05-21T02:08:10;89437.94;;;8.60;100.00
46782;BME280;32541;46.298;11.506;2023-05-21T02:10:37;89445.75;;;8.63;100.00
46782;BME280;32541;46.298;11.506;2023-05-21T02:13:02;89455.56;;;8.66;100.00
46782;BME280;32541;46.298;11.506;2023-05-21T02:15:28;89446.75;;;8.68;100.00
46782;BME280;32541;46.298;11.506;2023-05-21T02:17:53;89448.63;;;8.65;100.00
46782;BME280;32541;46.298;11.506;2023-05-21T02:20:19;89446.63;;;8.66;100.00
46782;BME280;32541;46.298;11.506;2023-05-21T02:22:47;89449.78;;;8.62;100.00
46782;BME280;32541;46.298;11.506;2023-05-21T02:25:15;89452.09;;;8.66;100.00
46782;BME280;32541;46.298;11.506;2023-05-21T02:27:42;89449.56;;;8.77;100.00
46782;BME280;32541;46.298;11.506;2023-05-21T02:30:10;89454.72;;;8.73;100.00
46782;BME280;32541;46.298;11.506;2023-05-21T02:32:36;89456.03;;;8.72;100.00
46782;BME280;32541;46.298;11.506;2023-05-21T02:35:03;89450.38;;;8.70;100.00
46782;BME280;32541;46.298;11.506;2023-05-21T02:37:29;89449.41;;;8.75;100.00
46782;BME280;32541;46.298;11.506;2023-05-21T02:39:58;89450.16;;;8.85;100.00
46782;BME280;32541;46.298;11.506;2023-05-21T02:42:23;89449.69;;;8.79;100.00
46782;BME280;32541;46.298;11.506;2023-05-21T02:44:51;89448.41;;;8.80;100.00
46782;BME280;32541;46.298;11.506;2023-05-21T02:47:20;89443.16;;;9.02;100.00
46782;BME280;32541;46.298;11.506;2023-05-21T02:49:48;89442.25;;;8.89;100.00
46782;BME280;32541;46.298;11.506;2023-05-21T02:52:14;89440.97;;;8.90;100.00
46782;BME280;32541;46.298;11.506;2023-05-21T02:54:40;89434.16;;;8.91;100.00
46782;BME280;32541;46.298;11.506;2023-05-21T02:57:06;89435.16;;;8.86;100.00
46782;BME280;32541;46.298;11.506;2023-05-21T02:59:31;89426.81;;;8.94;100.00
46782;BME280;32541;46.298;11.506;2023-05-21T03:01:56;89434.63;;;8.98;100.00
46782;BME280;32541;46.298;11.506;2023-05-21T03:04:22;89435.03;;;8.94;100.00
46782;BME280;32541;46.298;11.506;2023-05-21T03:06:50;89433.28;;;8.89;100.00
46782;BME280;32541;46.298;11.506;2023-05-21T03:09:19;89429.69;;;8.86;100.00
46782;BME280;32541;46.298;11.506;2023-05-21T03:11:45;89432.56;;;8.88;100.00
46782;BME280;32541;46.298;11.506;2023-05-21T03:14:11;89433.44;;;8.91;100.00
46782;BME280;32541;46.298;11.506;2023-05-21T03:16:36;89434.16;;;8.91;100.00
46782;BME280;32541;46.298;11.506;2023-05-21T03:19:02;89436.34;;;8.93;100.00
46782;BME280;32541;46.298;11.506;2023-05-21T03:21:27;89441.09;;;8.92;100.00
46782;BME280;32541;46.298;11.506;2023-05-21T03:23:54;89442.69;;;8.96;100.00
46782;BME280;32541;46.298;11.506;2023-05-21T03:26:23;89437.81;;;9.04;100.00
46782;BME280;32541;46.298;11.506;2023-05-21T03:28:49;89434.97;;;9.11;100.00
46782;BME280;32541;46.298;11.506;2023-05-21T03:31:15;89429.44;;;9.02;100.00
46782;BME280;32541;46.298;11.506;2023-05-21T03:33:40;89422.81;;;9.05;100.00
46782;BME280;32541;46.298;11.506;2023-05-21T03:36:05;89425.25;;;9.01;100.00
46782;BME280;32541;46.298;11.506;2023-05-21T03:38:31;89426.44;;;9.07;100.00
46782;BME280;32541;46.298;11.506;2023-05-21T03:40:56;89430.91;;;9.03;100.00
46782;BME280;32541;46.298;11.506;2023-05-21T03:43:22;89423.22;;;9.01;100.00
46782;BME280;32541;46.298;11.506;2023-05-21T03:45:47;89426.81;;;8.94;100.00
46782;BME280;32541;46.298;11.506;2023-05-21T03:48:12;89428.94;;;8.86;100.00
46782;BME280;32541;46.298;11.506;2023-05-21T03:50:38;89431.03;;;9.05;100.00
46782;BME280;32541;46.298;11.506;2023-05-21T03:53:03;89430.75;;;9.10;100.00
46782;BME280;32541;46.298;11.506;2023-05-21T03:55:28;89434.34;;;9.03;100.00
46782;BME280;32541;46.298;11.506;2023-05-21T03:57:54;89436.75;;;8.89;100.00
46782;BME280;32541;46.298;11.506;2023-05-21T04:00:19;89437.31;;;8.88;100.00
46782;BME280;32541;46.298;11.506;2023-05-21T04:02:45;89444.38;;;8.81;100.00
46782;BME280;32541;46.298;11.506;2023-05-21T04:05:10;89447.28;;;8.83;100.00
46782;BME280;32541;46.298;11.506;2023-05-21T04:07:36;89450.56;;;8.82;100.00
46782;BME280;32541;46.298;11.506;2023-05-21T04:10:02;89455.66;;;8.85;100.00
46782;BME280;32541;46.298;11.506;2023-05-21T04:12:28;89464.75;;;8.88;100.00
46782;BME280;32541;46.298;11.506;2023-05-21T04:14:53;89465.38;;;8.96;100.00
46782;BME280;32541;46.298;11.506;2023-05-21T04:17:19;89474.88;;;8.95;100.00
46782;BME280;32541;46.298;11.506;2023-05-21T04:19:45;89468.66;;;8.94;100.00
46782;BME280;32541;46.298;11.506;2023-05-21T04:22:10;89472.72;;;8.93;100.00
46782;BME280;32541;46.298;11.506;2023-05-21T04:24:38;89475.00;;;8.87;100.00
46782;BME280;32541;46.298;11.506;2023-05-21T04:27:04;89470.66;;;8.84;100.00
46782;BME280;32541;46.298;11.506;2023-05-21T04:29:30;89471.00;;;8.98;100.00
46782;BME280;32541;46.298;11.506;2023-05-21T04:31:55;89479.94;;;8.99;100.00
46782;BME280;32541;46.298;11.506;2023-05-21T04:34:20;89480.41;;;9.05;100.00
46782;BME280;32541;46.298;11.506;2023-05-21T04:36:46;89486.44;;;9.03;100.00
46782;BME280;32541;46.298;11.506;2023-05-21T04:39:12;89476.06;;;9.02;100.00
46782;BME280;32541;46.298;11.506;2023-05-21T04:41:38;89475.94;;;9.00;100.00
46782;BME280;32541;46.298;11.506;2023-05-21T04:44:08;89472.19;;;9.05;100.00
46782;BME280;32541;46.298;11.506;2023-05-21T04:46:34;89475.66;;;9.05;100.00
46782;BME280;32541;46.298;11.506;2023-05-21T04:49:03;89480.13;;;9.10;100.00
46782;BME280;32541;46.298;11.506;2023-05-21T04:51:29;89480.13;;;9.10;100.00
46782;BME280;32541;46.298;11.506;2023-05-21T04:53:55;89472.22;;;9.14;100.00
46782;BME280;32541;46.298;11.506;2023-05-21T04:56:25;89470.19;;;9.15;100.00
46782;BME280;32541;46.298;11.506;2023-05-21T04:58:51;89474.09;;;9.21;100.00
46782;BME280;32541;46.298;11.506;2023-05-21T05:01:17;89469.47;;;9.24;100.00
46782;BME280;32541;46.298;11.506;2023-05-21T05:03:44;89477.94;;;9.09;100.00
46782;BME280;32541;46.298;11.506;2023-05-21T05:06:10;89493.53;;;8.97;100.00
46782;BME280;32541;46.298;11.506;2023-05-21T05:08:35;89493.53;;;8.97;100.00
46782;BME280;32541;46.298;11.506;2023-05-21T05:11:01;89497.63;;;8.78;100.00
46782;BME280;32541;46.298;11.506;2023-05-21T05:13:27;89494.94;;;8.98;100.00
46782;BME280;32541;46.298;11.506;2023-05-21T05:15:52;89505.66;;;9.03;100.00
46782;BME280;32541;46.298;11.506;2023-05-21T05:18:18;89503.34;;;9.00;100.00
46782;BME280;32541;46.298;11.506;2023-05-21T05:20:44;89501.03;;;9.06;100.00
46782;BME280;32541;46.298;11.506;2023-05-21T05:23:11;89487.50;;;9.08;100.00
46782;BME280;32541;46.298;11.506;2023-05-21T05:25:36;89484.28;;;9.02;100.00
46782;BME280;32541;46.298;11.506;2023-05-21T05:28:01;89490.50;;;9.02;100.00
46782;BME280;32541;46.298;11.506;2023-05-21T05:30:27;89467.72;;;9.09;100.00
46782;BME280;32541;46.298;11.506;2023-05-21T05:32:52;89469.16;;;9.10;100.00
46782;BME280;32541;46.298;11.506;2023-05-21T05:35:17;89466.75;;;9.24;100.00
46782;BME280;32541;46.298;11.506;2023-05-21T05:37:43;89463.84;;;9.22;100.00
46782;BME280;32541;46.298;11.506;2023-05-21T05:40:08;89466.75;;;9.24;100.00
46782;BME280;32541;46.298;11.506;2023-05-21T05:42:34;89464.69;;;9.15;100.00
46782;BME280;32541;46.298;11.506;2023-05-21T05:44:59;89463.78;;;8.93;100.00
46782;BME280;32541;46.298;11.506;2023-05-21T05:47:25;89468.22;;;8.88;100.00
46782;BME280;32541;46.298;11.506;2023-05-21T05:49:50;89461.09;;;8.76;100.00
46782;BME280;32541;46.298;11.506;2023-05-21T05:52:16;89467.38;;;8.96;100.00
46782;BME280;32541;46.298;11.506;2023-05-21T05:54:41;89467.84;;;9.02;100.00
46782;BME280;32541;46.298;11.506;2023-05-21T05:57:06;89467.97;;;9.04;100.00
46782;BME280;32541;46.298;11.506;2023-05-21T05:59:32;89458.66;;;9.16;100.00
46782;BME280;32541;46.298;11.506;2023-05-21T06:01:58;89458.69;;;9.26;100.00
46782;BME280;32541;46.298;11.506;2023-05-21T06:04:24;89456.53;;;9.34;100.00
46782;BME280;32541;46.298;11.506;2023-05-21T06:06:50;89447.72;;;9.45;100.00
46782;BME280;32541;46.298;11.506;2023-05-21T06:09:16;89448.91;;;9.61;100.00
46782;BME280;32541;46.298;11.506;2023-05-21T06:11:42;89450.38;;;9.72;100.00
46782;BME280;32541;46.298;11.506;2023-05-21T06:14:07;89449.66;;;9.90;100.00
46782;BME280;32541;46.298;11.506;2023-05-21T06:16:32;89447.06;;;10.02;100.00
46782;BME280;32541;46.298;11.506;2023-05-21T06:18:58;89441.72;;;10.14;100.00
46782;BME280;32541;46.298;11.506;2023-05-21T06:21:23;89441.44;;;10.29;100.00
46782;BME280;32541;46.298;11.506;2023-05-21T06:23:49;89440.25;;;10.41;100.00
46782;BME280;32541;46.298;11.506;2023-05-21T06:26:14;89433.13;;;10.57;100.00
46782;BME280;32541;46.298;11.506;2023-05-21T06:28:39;89440.78;;;10.59;100.00
46782;BME280;32541;46.298;11.506;2023-05-21T06:31:05;89434.75;;;10.51;100.00
46782;BME280;32541;46.298;11.506;2023-05-21T06:33:30;89430.25;;;10.46;100.00
46782;BME280;32541;46.298;11.506;2023-05-21T06:35:55;89428.75;;;10.64;100.00
46782;BME280;32541;46.298;11.506;2023-05-21T06:38:21;89421.63;;;10.80;100.00
46782;BME280;32541;46.298;11.506;2023-05-21T06:40:46;89427.19;;;11.01;100.00
46782;BME280;32541;46.298;11.506;2023-05-21T06:43:12;89433.91;;;10.89;100.00
46782;BME280;32541;46.298;11.506;2023-05-21T06:45:38;89434.34;;;10.85;100.00
46782;BME280;32541;46.298;11.506;2023-05-21T06:48:04;89441.47;;;10.79;100.00
46782;BME280;32541;46.298;11.506;2023-05-21T06:50:29;89438.78;;;10.59;100.00
46782;BME280;32541;46.298;11.506;2023-05-21T06:52:54;89441.47;;;10.69;100.00
46782;BME280;32541;46.298;11.506;2023-05-21T06:55:20;89440.38;;;10.93;100.00
46782;BME280;32541;46.298;11.506;2023-05-21T06:57:45;89438.47;;;11.05;100.00
46782;BME280;32541;46.298;11.506;2023-05-21T07:00:11;89447.13;;;11.11;100.00
46782;BME280;32541;46.298;11.506;2023-05-21T07:02:37;89434.78;;;11.22;100.00
46782;BME280;32541;46.298;11.506;2023-05-21T07:05:02;89438.72;;;11.19;100.00
46782;BME280;32541;46.298;11.506;2023-05-21T07:07:28;89442.72;;;11.28;100.00
46782;BME280;32541;46.298;11.506;2023-05-21T07:09:53;89455.88;;;11.29;100.00
46782;BME280;32541;46.298;11.506;2023-05-21T07:12:19;89445.16;;;11.33;100.00
46782;BME280;32541;46.298;11.506;2023-05-21T07:14:44;89449.22;;;11.32;100.00
46782;BME280;32541;46.298;11.506;2023-05-21T07:17:09;89439.59;;;11.43;100.00
46782;BME280;32541;46.298;11.506;2023-05-21T07:19:35;89430.88;;;11.46;100.00
46782;BME280;32541;46.298;11.506;2023-05-21T07:22:02;89430.63;;;11.42;100.00
46782;BME280;32541;46.298;11.506;2023-05-21T07:24:27;89427.03;;;11.61;100.00
46782;BME280;32541;46.298;11.506;2023-05-21T07:26:53;89430.28;;;11.79;100.00
46782;BME280;32541;46.298;11.506;2023-05-21T07:29:18;89431.72;;;11.80;100.00
46782;BME280;32541;46.298;11.506;2023-05-21T07:31:44;89430.19;;;11.88;100.00
46782;BME280;32541;46.298;11.506;2023-05-21T07:34:09;89428.94;;;11.80;100.00
46782;BME280;32541;46.298;11.506;2023-05-21T07:36:34;89435.31;;;11.82;100.00
46782;BME280;32541;46.298;11.506;2023-05-21T07:39:01;89432.03;;;11.74;100.00
46782;BME280;32541;46.298;11.506;2023-05-21T07:41:26;89425.38;;;11.67;100.00
46782;BME280;32541;46.298;11.506;2023-05-21T07:43:52;89434.09;;;11.64;100.00
46782;BME280;32541;46.298;11.506;2023-05-21T07:46:17;89428.56;;;11.74;100.00
46782;BME280;32541;46.298;11.506;2023-05-21T07:48:43;89435.59;;;11.86;100.00
46782;BME280;32541;46.298;11.506;2023-05-21T07:51:09;89438.66;;;12.02;100.00
46782;BME280;32541;46.298;11.506;2023-05-21T07:53:34;89431.97;;;12.05;100.00
46782;BME280;32541;46.298;11.506;2023-05-21T07:56:00;89430.53;;;12.04;100.00
46782;BME280;32541;46.298;11.506;2023-05-21T07:58:25;89446.88;;;12.11;99.05
46782;BME280;32541;46.298;11.506;2023-05-21T08:00:50;89435.16;;;12.22;96.17
46782;BME280;32541;46.298;11.506;2023-05-21T08:03:17;89442.88;;;12.36;92.50
46782;BME280;32541;46.298;11.506;2023-05-21T08:05:43;89442.28;;;12.37;91.87
46782;BME280;32541;46.298;11.506;2023-05-21T08:08:19;89444.44;;;12.39;92.98
46782;BME280;32541;46.298;11.506;2023-05-21T08:10:46;89445.16;;;12.39;92.84
46782;BME280;32541;46.298;11.506;2023-05-21T08:13:12;89448.31;;;12.45;94.94
46782;BME280;32541;46.298;11.506;2023-05-21T08:15:37;89450.72;;;12.51;96.63
46782;BME280;32541;46.298;11.506;2023-05-21T08:18:03;89453.28;;;12.25;98.73
46782;BME280;32541;46.298;11.506;2023-05-21T08:20:29;89458.78;;;12.25;97.83
46782;BME280;32541;46.298;11.506;2023-05-21T08:22:56;89452.75;;;12.17;96.77
46782;BME280;32541;46.298;11.506;2023-05-21T08:25:22;89452.34;;;12.33;93.98
46782;BME280;32541;46.298;11.506;2023-05-21T08:27:47;89450.50;;;12.47;92.14
46782;BME280;32541;46.298;11.506;2023-05-21T08:30:12;89450.25;;;12.54;88.20
46782;BME280;32541;46.298;11.506;2023-05-21T08:32:38;89445.88;;;12.72;87.19
46782;BME280;32541;46.298;11.506;2023-05-21T08:35:04;89448.19;;;12.88;88.39
46782;BME280;32541;46.298;11.506;2023-05-21T08:37:30;89446.09;;;13.09;88.86
46782;BME280;32541;46.298;11.506;2023-05-21T08:39:55;89448.88;;;13.44;88.16
46782;BME280;32541;46.298;11.506;2023-05-21T08:42:38;89438.03;;;13.83;87.67
46782;BME280;32541;46.298;11.506;2023-05-21T08:45:05;89437.03;;;14.13;89.26
46782;BME280;32541;46.298;11.506;2023-05-21T08:47:33;89438.69;;;14.55;87.89
46782;BME280;32541;46.298;11.506;2023-05-21T08:49:59;89439.09;;;14.75;82.11
46782;BME280;32541;46.298;11.506;2023-05-21T08:52:26;89433.22;;;14.94;80.21
46782;BME280;32541;46.298;11.506;2023-05-21T08:54:52;89432.53;;;15.07;80.73
46782;BME280;32541;46.298;11.506;2023-05-21T08:57:18;89433.84;;;15.31;75.41
46782;BME280;32541;46.298;11.506;2023-05-21T08:59:44;89429.44;;;15.01;73.58
46782;BME280;32541;46.298;11.506;2023-05-21T09:02:13;89437.66;;;14.49;76.94
46782;BME280;32541;46.298;11.506;2023-05-21T09:04:40;89428.84;;;14.77;78.73
46782;BME280;32541;46.298;11.506;2023-05-21T09:07:06;89422.72;;;15.18;79.99
46782;BME280;32541;46.298;11.506;2023-05-21T09:09:40;89425.69;;;15.47;79.35
46782;BME280;32541;46.298;11.506;2023-05-21T09:12:06;89435.44;;;15.89;77.80
46782;BME280;32541;46.298;11.506;2023-05-21T09:14:33;89417.72;;;16.37;70.27
46782;BME280;32541;46.298;11.506;2023-05-21T09:16:59;89417.56;;;16.48;72.22
46782;BME280;32541;46.298;11.506;2023-05-21T09:19:25;89410.44;;;16.73;71.59
46782;BME280;32541;46.298;11.506;2023-05-21T09:21:51;89410.19;;;16.82;76.49
46782;BME280;32541;46.298;11.506;2023-05-21T09:24:22;89417.97;;;16.70;72.19
46782;BME280;32541;46.298;11.506;2023-05-21T09:26:47;89411.03;;;16.42;71.51
46782;BME280;32541;46.298;11.506;2023-05-21T09:29:13;89408.34;;;16.44;71.10
46782;BME280;32541;46.298;11.506;2023-05-21T09:31:44;89401.44;;;16.58;70.11
46782;BME280;32541;46.298;11.506;2023-05-21T09:34:09;89407.09;;;16.60;70.98
46782;BME280;32541;46.298;11.506;2023-05-21T09:36:36;89406.75;;;16.25;72.05
46782;BME280;32541;46.298;11.506;2023-05-21T09:39:02;89412.78;;;16.35;70.19
46782;BME280;32541;46.298;11.506;2023-05-21T09:41:31;89409.69;;;16.43;69.42
46782;BME280;32541;46.298;11.506;2023-05-21T09:44:01;89415.28;;;16.72;71.67
46782;BME280;32541;46.298;11.506;2023-05-21T09:46:36;89402.09;;;17.02;68.87
46782;BME280;32541;46.298;11.506;2023-05-21T09:49:02;89399.28;;;17.62;68.17
46782;BME280;32541;46.298;11.506;2023-05-21T09:51:27;89397.50;;;17.69;65.58
46782;BME280;32541;46.298;11.506;2023-05-21T09:53:54;89395.53;;;17.56;64.60
46782;BME280;32541;46.298;11.506;2023-05-21T09:56:28;89403.16;;;16.95;61.03
46782;BME280;32541;46.298;11.506;2023-05-21T09:58:57;89410.00;;;16.78;64.14
46782;BME280;32541;46.298;11.506;2023-05-21T10:01:24;89401.09;;;16.66;63.91
46782;BME280;32541;46.298;11.506;2023-05-21T10:03:54;89409.28;;;17.22;63.26
46782;BME280;32541;46.298;11.506;2023-05-21T10:06:23;89405.53;;;17.47;55.82
46782;BME280;32541;46.298;11.506;2023-05-21T10:08:52;89396.97;;;17.72;56.71
46782;BME280;32541;46.298;11.506;2023-05-21T10:11:21;89403.13;;;18.02;60.10
46782;BME280;32541;46.298;11.506;2023-05-21T10:14:13;89399.25;;;17.94;49.50
46782;BME280;32541;46.298;11.506;2023-05-21T10:16:38;89395.47;;;18.36;45.11
46782;BME280;32541;46.298;11.506;2023-05-21T10:19:04;89397.78;;;18.57;50.91
46782;BME280;32541;46.298;11.506;2023-05-21T10:21:35;89401.56;;;18.48;47.66
46782;BME280;32541;46.298;11.506;2023-05-21T10:24:01;89391.19;;;19.02;47.60
46782;BME280;32541;46.298;11.506;2023-05-21T10:26:29;89406.28;;;19.50;50.73
46782;BME280;32541;46.298;11.506;2023-05-21T10:28:56;89391.59;;;19.12;48.37
46782;BME280;32541;46.298;11.506;2023-05-21T10:31:25;89397.69;;;19.26;50.17
46782;BME280;32541;46.298;11.506;2023-05-21T10:33:52;89386.56;;;19.08;48.06
46782;BME280;32541;46.298;11.506;2023-05-21T10:36:18;89385.63;;;18.66;46.54
46782;BME280;32541;46.298;11.506;2023-05-21T10:38:44;89386.63;;;18.57;47.31
46782;BME280;32541;46.298;11.506;2023-05-21T10:41:11;89387.44;;;18.77;48.93
46782;BME280;32541;46.298;11.506;2023-05-21T11:00:04;89372.81;;;18.26;44.49
46782;BME280;32541;46.298;11.506;2023-05-21T11:02:32;89378.19;;;18.22;43.72
46782;BME280;32541;46.298;11.506;2023-05-21T11:04:59;89378.38;;;18.26;43.65
46782;BME280;32541;46.298;11.506;2023-05-21T11:07:56;89357.53;;;18.27;44.71
46782;BME280;32541;46.298;11.506;2023-05-21T11:10:35;89356.41;;;18.67;46.09
46782;BME280;32541;46.298;11.506;2023-05-21T11:13:12;89363.31;;;18.84;42.87
46782;BME280;32541;46.298;11.506;2023-05-21T11:19:13;89359.03;;;18.99;42.98
46782;BME280;32541;46.298;11.506;2023-05-21T11:21:16;89359.50;;;19.11;44.82
46782;BME280;32541;46.298;11.506;2023-05-21T11:26:28;89366.81;;;19.20;46.69
46782;BME280;32541;46.298;11.506;2023-05-21T11:31:28;89366.97;;;18.88;49.06
46782;BME280;32541;46.298;11.506;2023-05-21T11:34:18;89377.97;;;18.84;48.29
46782;BME280;32541;46.298;11.506;2023-05-21T11:36:45;89362.22;;;19.09;47.10
46782;BME280;32541;46.298;11.506;2023-05-21T11:41:57;89369.81;;;19.26;47.70
46782;BME280;32541;46.298;11.506;2023-05-21T11:44:39;89361.00;;;19.51;50.45
46782;BME280;32541;46.298;11.506;2023-05-21T11:47:05;89355.41;;;19.88;49.57
46782;BME280;32541;46.298;11.506;2023-05-21T11:49:31;89358.59;;;19.81;48.11
46782;BME280;32541;46.298;11.506;2023-05-21T11:51:59;89365.47;;;19.58;47.95
46782;BME280;32541;46.298;11.506;2023-05-21T11:54:24;89354.47;;;19.82;47.37
46782;BME280;32541;46.298;11.506;2023-05-21T11:56:51;89359.75;;;19.93;47.76
46782;BME280;32541;46.298;11.506;2023-05-21T11:59:18;89352.06;;;20.14;49.15
46782;BME280;32541;46.298;11.506;2023-05-21T12:01:43;89353.16;;;20.05;47.44
46782;BME280;32541;46.298;11.506;2023-05-21T12:04:09;89352.88;;;19.96;46.60
46782;BME280;32541;46.298;11.506;2023-05-21T12:06:42;89351.22;;;19.89;46.29
46782;BME280;32541;46.298;11.506;2023-05-21T12:09:11;89348.59;;;19.93;46.40
46782;BME280;32541;46.298;11.506;2023-05-21T12:11:40;89350.72;;;20.15;43.50
46782;BME280;32541;46.298;11.506;2023-05-21T12:14:09;89350.00;;;20.14;43.28
46782;BME280;32541;46.298;11.506;2023-05-21T12:16:35;89347.56;;;20.05;44.28
46782;BME280;32541;46.298;11.506;2023-05-21T12:19:02;89342.53;;;19.79;44.99
46782;BME280;32541;46.298;11.506;2023-05-21T12:21:28;89351.00;;;19.44;46.11
46782;BME280;32541;46.298;11.506;2023-05-21T12:23:55;89347.31;;;19.96;48.11
46782;BME280;32541;46.298;11.506;2023-05-21T12:26:21;89350.66;;;20.13;45.21
46782;BME280;32541;46.298;11.506;2023-05-21T12:28:50;89346.66;;;19.78;44.99
46782;BME280;32541;46.298;11.506;2023-05-21T12:31:15;89354.25;;;19.38;46.51
46782;BME280;32541;46.298;11.506;2023-05-21T12:33:44;89347.81;;;19.34;46.57
46782;BME280;32541;46.298;11.506;2023-05-21T12:36:27;89347.72;;;19.50;45.71
46782;BME280;32541;46.298;11.506;2023-05-21T12:38:53;89350.72;;;19.56;47.73
46782;BME280;32541;46.298;11.506;2023-05-21T12:41:20;89354.06;;;19.15;47.92
46782;BME280;32541;46.298;11.506;2023-05-21T12:43:46;89348.34;;;18.93;48.09
46782;BME280;32541;46.298;11.506;2023-05-21T12:46:12;89349.63;;;19.08;47.55
46782;BME280;32541;46.298;11.506;2023-05-21T12:48:39;89356.75;;;19.13;48.46
46782;BME280;32541;46.298;11.506;2023-05-21T12:51:07;89345.94;;;19.21;48.25
46782;BME280;32541;46.298;11.506;2023-05-21T12:53:36;89347.91;;;19.18;49.51
46782;BME280;32541;46.298;11.506;2023-05-21T12:56:12;89353.63;;;19.40;48.33
46782;BME280;32541;46.298;11.506;2023-05-21T12:58:39;89346.44;;;19.53;48.51
46782;BME280;32541;46.298;11.506;2023-05-21T13:01:10;89338.16;;;19.74;49.62
46782;BME280;32541;46.298;11.506;2023-05-21T13:03:37;89343.53;;;19.68;46.47
46782;BME280;32541;46.298;11.506;2023-05-21T13:06:07;89334.84;;;19.60;46.84
46782;BME280;32541;46.298;11.506;2023-05-21T13:08:33;89334.84;;;19.60;48.40
46782;BME280;32541;46.298;11.506;2023-05-21T13:11:03;89336.72;;;19.73;48.38
46782;BME280;32541;46.298;11.506;2023-05-21T13:13:29;89323.41;;;19.91;48.93
46782;BME280;32541;46.298;11.506;2023-05-21T13:15:55;89327.97;;;20.03;48.00